createdAt,value
2023-03-04T00:00:30.768Z,23.60
2023-03-04T00:02:58.587Z,24.10
2023-03-04T00:05:26.498Z,25.55
2023-03-04T00:07:54.280Z,22.35
2023-03-04T00:10:22.136Z,25.65
2023-03-04T00:12:49.911Z,22.90
2023-03-04T00:15:17.741Z,25.33
2023-03-04T00:17:46.620Z,21.05
2023-03-04T00:20:14.899Z,24.77
2023-03-04T00:22:42.721Z,30.58
2023-03-04T00:25:10.520Z,25.45
2023-03-04T00:27:38.289Z,28.00
2023-03-04T00:30:07.383Z,21.00
2023-03-04T00:32:35.202Z,30.13
2023-03-04T00:35:07.190Z,28.15
2023-03-04T00:37:35.240Z,28.52
2023-03-04T00:40:03.120Z,32.20
2023-03-04T00:42:30.935Z,32.88
2023-03-04T00:44:59.580Z,29.98
2023-03-04T00:47:27.328Z,27.88
2023-03-04T00:49:55.125Z,31.05
2023-03-04T00:52:22.958Z,31.95
2023-03-04T00:54:50.701Z,28.23
2023-03-04T00:57:18.508Z,31.17
2023-03-04T00:59:46.537Z,26.42
2023-03-04T01:02:14.389Z,27.88
2023-03-04T01:04:43.243Z,25.80
2023-03-04T01:07:11.114Z,26.98
2023-03-04T01:09:40.061Z,29.67
2023-03-04T01:12:07.978Z,27.77
2023-03-04T01:14:35.987Z,27.70
2023-03-04T01:17:04.235Z,29.00
2023-03-04T01:19:32.386Z,31.15
2023-03-04T01:22:00.225Z,28.95
2023-03-04T01:24:30.130Z,28.05
2023-03-04T01:26:58.034Z,29.20
2023-03-04T01:29:26.008Z,32.75
2023-03-04T01:31:53.845Z,26.45
2023-03-04T01:34:21.788Z,25.85
2023-03-04T01:36:49.677Z,25.42
2023-03-04T01:39:19.809Z,24.30
2023-03-04T01:41:47.938Z,27.83
2023-03-04T01:44:16.077Z,28.55
2023-03-04T01:46:50.127Z,26.50
2023-03-04T01:49:19.550Z,30.33
2023-03-04T01:51:53.893Z,25.88
2023-03-04T01:54:22.976Z,26.20
2023-03-04T01:56:52.789Z,31.23
2023-03-04T01:59:23.416Z,25.63
2023-03-04T02:01:55.066Z,25.23
2023-03-04T02:04:26.333Z,23.38
2023-03-04T02:06:55.609Z,25.95
2023-03-04T02:09:23.647Z,21.70
2023-03-04T02:11:53.333Z,22.27
2023-03-04T02:14:22.407Z,28.75
2023-03-04T02:16:52.119Z,25.90
2023-03-04T02:19:35.084Z,27.75
2023-03-04T02:22:03.266Z,28.90
2023-03-04T02:24:51.163Z,22.00
2023-03-04T02:27:21.646Z,27.60
2023-03-04T02:29:50.999Z,24.08
2023-03-04T02:32:19.110Z,23.20
2023-03-04T02:34:53.014Z,32.55
2023-03-04T02:37:22.259Z,27.95
2023-03-04T02:39:53.510Z,27.38
2023-03-04T02:42:21.330Z,25.48
2023-03-04T02:44:50.637Z,25.42
2023-03-04T02:47:20.760Z,26.27
2023-03-04T02:49:50.297Z,27.77
2023-03-04T02:52:21.278Z,23.45
2023-03-04T02:54:49.251Z,27.17
2023-03-04T02:57:18.273Z,24.83
2023-03-04T02:59:50.014Z,30.13
2023-03-04T03:02:22.180Z,29.25
2023-03-04T03:04:50.164Z,28.67
2023-03-04T03:07:20.532Z,25.55
2023-03-04T03:09:49.643Z,30.13
2023-03-04T03:12:18.993Z,28.17
2023-03-04T03:14:46.867Z,22.75
2023-03-04T03:17:18.169Z,29.13
2023-03-04T03:19:46.056Z,30.05
2023-03-04T03:22:14.421Z,23.35
2023-03-04T03:24:42.509Z,27.60
2023-03-04T03:27:10.409Z,24.55
2023-03-04T03:29:38.309Z,27.38
2023-03-04T03:32:08.830Z,25.60
2023-03-04T03:34:36.642Z,26.35
2023-03-04T03:37:04.490Z,24.17
2023-03-04T03:39:32.287Z,28.40
2023-03-04T03:42:00.148Z,20.52
2023-03-04T03:44:28.066Z,24.73
2023-03-04T03:46:56.006Z,27.50
2023-03-04T03:49:23.858Z,23.33
2023-03-04T03:51:51.853Z,26.15
2023-03-04T03:54:19.771Z,27.58
2023-03-04T03:56:47.603Z,28.45
2023-03-04T03:59:15.450Z,25.17
2023-03-04T04:01:43.353Z,23.80
2023-03-04T04:04:11.439Z,23.67
2023-03-04T04:06:39.257Z,24.70
2023-03-04T04:09:07.161Z,24.33
2023-03-04T04:11:35.132Z,29.25
2023-03-04T04:14:03.032Z,27.15
2023-03-04T04:16:31.208Z,27.38
2023-03-04T04:18:59.251Z,26.27
2023-03-04T04:21:27.111Z,24.52
2023-03-04T04:23:54.983Z,24.80
2023-03-04T04:26:22.812Z,26.88
2023-03-04T04:28:50.621Z,28.25
2023-03-04T04:31:18.614Z,29.05
2023-03-04T04:33:46.567Z,30.38
2023-03-04T04:36:16.614Z,22.55
2023-03-04T04:38:45.486Z,28.10
2023-03-04T04:41:28.889Z,26.70
2023-03-04T04:43:56.744Z,25.58
2023-03-04T04:46:24.701Z,24.42
2023-03-04T04:48:52.524Z,25.85
2023-03-04T04:51:20.394Z,29.35
2023-03-04T04:53:48.857Z,21.05
2023-03-04T04:56:19.992Z,28.40
2023-03-04T04:58:48.858Z,23.48
2023-03-04T05:03:58.915Z,27.65
2023-03-04T05:06:27.353Z,30.00
2023-03-04T05:08:55.269Z,27.15
2023-03-04T05:11:23.272Z,25.92
2023-03-04T05:13:51.688Z,27.25
2023-03-04T05:16:19.621Z,28.50
2023-03-04T05:18:47.514Z,28.65
2023-03-04T05:21:15.715Z,27.38
2023-03-04T05:23:44.229Z,31.83
2023-03-04T05:26:17.320Z,25.05
2023-03-04T05:28:45.912Z,27.65
2023-03-04T05:31:14.195Z,26.13
2023-03-04T05:33:42.001Z,29.95
2023-03-04T05:36:10.072Z,29.10
2023-03-04T05:38:38.083Z,30.70
2023-03-04T05:41:07.737Z,26.85
2023-03-04T05:43:36.992Z,30.15
2023-03-04T05:46:05.156Z,28.45
2023-03-04T05:48:33.003Z,27.38
2023-03-04T05:51:02.192Z,24.63
2023-03-04T05:53:30.183Z,30.27
2023-03-04T05:56:00.378Z,28.85
2023-03-04T05:58:28.269Z,27.92
2023-03-04T06:01:00.498Z,25.95
2023-03-04T06:03:28.382Z,25.63
2023-03-04T06:05:56.253Z,30.92
2023-03-04T06:08:24.143Z,28.70
2023-03-04T06:10:57.199Z,29.35
2023-03-04T06:13:27.691Z,33.22
2023-03-04T06:15:58.038Z,26.65
2023-03-04T06:18:27.413Z,24.67
2023-03-04T06:21:03.447Z,31.75
2023-03-04T06:23:31.571Z,32.00
2023-03-04T06:26:00.901Z,25.52
2023-03-04T06:28:29.434Z,27.80
2023-03-04T06:30:58.150Z,27.45
2023-03-04T06:33:26.561Z,26.58
2023-03-04T06:35:56.848Z,26.90
2023-03-04T06:38:26.438Z,31.10
2023-03-04T06:40:57.153Z,32.65
2023-03-04T06:43:25.657Z,36.65
2023-03-04T06:45:53.982Z,25.92
2023-03-04T06:48:21.784Z,32.65
2023-03-04T06:50:49.594Z,31.30
2023-03-04T06:53:17.427Z,27.00
2023-03-04T06:55:45.248Z,27.20
2023-03-04T06:58:13.112Z,31.35
2023-03-04T07:00:40.966Z,32.03
2023-03-04T07:03:09.710Z,25.90
2023-03-04T07:05:37.573Z,28.77
2023-03-04T07:08:07.403Z,29.73
2023-03-04T07:10:35.817Z,29.08
2023-03-04T07:13:03.934Z,30.52
2023-03-04T07:15:31.893Z,28.25
2023-03-04T07:17:59.780Z,31.05
2023-03-04T07:20:29.128Z,30.23
2023-03-04T07:22:58.637Z,33.83
2023-03-04T07:25:26.830Z,29.65
2023-03-04T07:27:54.740Z,27.33
2023-03-04T07:30:22.770Z,33.35
2023-03-04T07:32:50.635Z,26.90
2023-03-04T07:35:18.665Z,28.00
2023-03-04T07:37:46.679Z,29.08
2023-03-04T07:40:14.621Z,26.52
2023-03-04T07:42:42.566Z,30.45
2023-03-04T07:45:13.182Z,29.48
2023-03-04T07:47:41.646Z,31.02
2023-03-04T07:50:11.371Z,28.40
2023-03-04T07:52:40.836Z,28.63
2023-03-04T07:55:10.648Z,27.23
2023-03-04T07:57:43.423Z,30.35
2023-03-04T08:00:13.641Z,27.75
2023-03-04T08:02:42.025Z,28.95
2023-03-04T08:05:10.013Z,31.88
2023-03-04T08:07:38.026Z,26.95
2023-03-04T08:10:06.911Z,30.15
2023-03-04T08:12:36.671Z,31.67
2023-03-04T08:15:04.861Z,27.85
2023-03-04T08:17:32.671Z,27.58
2023-03-04T08:20:00.485Z,29.92
2023-03-04T08:22:28.245Z,25.27
2023-03-04T08:24:56.093Z,31.20
2023-03-04T08:27:23.919Z,31.40
2023-03-04T08:29:51.646Z,29.27
2023-03-04T08:32:19.605Z,29.98
2023-03-04T08:34:47.581Z,26.17
2023-03-04T08:37:15.503Z,25.05
2023-03-04T08:39:43.350Z,27.80
2023-03-04T08:42:11.140Z,26.80
2023-03-04T08:44:39.002Z,33.67
2023-03-04T08:47:09.419Z,27.55
2023-03-04T08:49:37.304Z,28.17
2023-03-04T08:52:05.644Z,31.75
2023-03-04T08:54:33.538Z,31.08
2023-03-04T08:57:01.489Z,26.98
2023-03-04T08:59:29.291Z,25.85
2023-03-04T09:01:57.236Z,29.80
2023-03-04T09:04:25.162Z,26.33
2023-03-04T09:06:54.311Z,29.98
2023-03-04T09:09:22.478Z,25.70
2023-03-04T09:11:50.375Z,24.00
2023-03-04T09:14:18.221Z,26.60
2023-03-04T09:16:46.054Z,27.83
2023-03-04T09:19:13.880Z,27.42
2023-03-04T09:21:41.721Z,26.63
2023-03-04T09:24:09.573Z,26.75
2023-03-04T09:26:37.439Z,28.45
2023-03-04T09:29:05.341Z,29.67
2023-03-04T09:31:33.428Z,23.83
2023-03-04T09:34:01.334Z,24.27
2023-03-04T09:36:29.161Z,24.02
2023-03-04T09:39:00.745Z,25.00
2023-03-04T09:41:42.534Z,25.33
2023-03-04T09:44:19.182Z,26.17
2023-03-04T09:46:48.874Z,22.80
2023-03-04T09:49:18.532Z,28.85
2023-03-04T09:51:52.581Z,21.88
2023-03-04T09:54:50.651Z,24.55
2023-03-04T09:57:46.155Z,27.58
2023-03-04T10:00:31.071Z,23.27
2023-03-04T10:03:11.019Z,23.08
2023-03-04T10:05:50.544Z,23.77
2023-03-04T10:08:33.498Z,28.63
2023-03-04T10:11:04.349Z,25.35
2023-03-04T10:13:41.081Z,28.48
2023-03-04T10:16:15.193Z,26.52
2023-03-04T10:18:50.145Z,24.33
2023-03-04T10:21:21.710Z,27.55
2023-03-04T10:23:49.981Z,21.52
2023-03-04T10:26:21.393Z,25.77
2023-03-04T10:28:49.960Z,23.88
2023-03-04T10:31:38.693Z,26.50
2023-03-04T10:34:07.264Z,23.17
2023-03-04T10:36:40.209Z,24.33
2023-03-04T10:39:09.905Z,23.02
2023-03-04T10:41:42.139Z,21.83
2023-03-04T10:44:09.926Z,24.37
2023-03-04T10:46:42.356Z,25.70
2023-03-04T10:49:15.654Z,30.77
2023-03-04T10:51:50.324Z,25.70
2023-03-04T10:54:42.452Z,27.00
2023-03-04T10:57:30.530Z,28.33
2023-03-04T11:00:03.110Z,29.17
2023-03-04T11:02:35.023Z,27.10
2023-03-04T11:05:15.499Z,25.90
2023-03-04T11:07:55.166Z,23.95
2023-03-04T11:10:32.139Z,25.85
2023-03-04T11:13:03.989Z,24.05
2023-03-04T11:15:48.651Z,28.50
2023-03-04T11:18:19.698Z,27.65
2023-03-04T11:20:50.388Z,24.83
2023-03-04T11:23:23.941Z,29.33
2023-03-04T11:26:04.651Z,25.10
2023-03-04T11:28:42.349Z,25.92
2023-03-04T11:31:18.274Z,26.75
2023-03-04T11:34:10.359Z,25.25
2023-03-04T11:37:10.081Z,26.08
2023-03-04T11:39:59.052Z,30.33
2023-03-04T11:42:42.049Z,28.10
2023-03-04T11:45:28.422Z,22.00
2023-03-04T11:48:11.939Z,22.40
2023-03-04T11:51:13.751Z,19.05
2023-03-04T11:53:52.114Z,21.40
2023-03-04T11:56:31.685Z,23.08
2023-03-04T11:59:10.552Z,24.10
2023-03-04T12:02:04.579Z,23.23
2023-03-04T12:04:56.824Z,20.83
2023-03-04T12:07:30.661Z,19.52
2023-03-04T12:10:17.096Z,27.23
2023-03-04T12:13:17.275Z,22.33
2023-03-04T12:16:06.401Z,21.63
2023-03-04T12:18:51.201Z,23.70
2023-03-04T12:22:01.848Z,20.45
2023-03-04T12:25:19.198Z,24.15
2023-03-04T12:28:05.501Z,21.20
2023-03-04T12:31:01.687Z,21.45
2023-03-04T12:34:00.147Z,19.45
2023-03-04T12:37:05.546Z,20.45
2023-03-04T12:39:56.426Z,18.70
2023-03-04T12:42:38.321Z,22.42
2023-03-04T12:45:39.788Z,20.70
2023-03-04T12:48:33.529Z,18.77
2023-03-04T12:51:04.281Z,20.65
2023-03-04T12:54:19.738Z,21.60
2023-03-04T12:57:25.467Z,19.23
2023-03-04T13:00:09.096Z,20.58
2023-03-04T13:02:56.507Z,20.63
2023-03-04T13:05:57.512Z,19.77
2023-03-04T13:08:25.294Z,19.33
2023-03-04T13:10:53.660Z,18.67
2023-03-04T13:13:36.031Z,20.30
2023-03-04T13:16:32.786Z,19.05
2023-03-04T13:19:00.819Z,21.13
2023-03-04T13:21:32.060Z,22.05
2023-03-04T13:24:38.248Z,18.30
2023-03-04T13:27:43.060Z,48.35
2023-03-04T13:30:32.172Z,25.90
2023-03-04T13:33:08.800Z,19.90
2023-03-04T13:35:55.082Z,18.25
2023-03-04T13:38:36.611Z,18.60
2023-03-04T13:41:15.529Z,18.92
2023-03-04T13:43:53.788Z,23.23
2023-03-04T13:46:23.941Z,17.17
2023-03-04T13:48:52.060Z,18.58
2023-03-04T13:51:28.967Z,18.92
2023-03-04T13:54:00.903Z,17.67
2023-03-04T13:56:37.420Z,21.92
2023-03-04T13:59:12.606Z,22.13
2023-03-04T14:01:43.419Z,21.58
2023-03-04T14:04:25.181Z,18.60
2023-03-04T14:06:58.346Z,20.73
2023-03-04T14:09:32.454Z,19.65
2023-03-04T14:12:04.321Z,23.42
2023-03-04T14:14:45.374Z,21.70
2023-03-04T14:17:35.399Z,21.10
2023-03-04T14:20:05.576Z,21.70
2023-03-04T14:22:40.370Z,21.77
2023-03-04T14:25:14.101Z,20.15
2023-03-04T14:27:42.027Z,21.33
2023-03-04T14:30:39.174Z,21.98
2023-03-04T14:33:16.214Z,24.45
2023-03-04T14:35:50.088Z,22.50
2023-03-04T14:38:34.167Z,24.38
2023-03-04T14:41:28.322Z,29.15
2023-03-04T14:44:05.481Z,23.45
2023-03-04T14:46:40.570Z,25.17
2023-03-04T14:49:13.628Z,24.05
2023-03-04T14:51:56.623Z,24.48
2023-03-04T14:56:55.057Z,28.52
2023-03-04T14:59:33.955Z,26.40
2023-03-04T15:02:24.707Z,23.10
2023-03-04T15:04:52.681Z,24.10
2023-03-04T15:07:34.892Z,25.25
2023-03-04T15:10:06.626Z,24.52
2023-03-04T15:12:37.763Z,28.25
2023-03-04T15:15:31.513Z,26.98
2023-03-04T15:18:13.974Z,24.67
2023-03-04T15:20:42.149Z,28.45
2023-03-04T15:23:15.345Z,24.92
2023-03-04T15:25:43.325Z,27.08
2023-03-04T15:28:21.248Z,28.80
2023-03-04T15:30:49.316Z,26.52
2023-03-04T15:33:19.988Z,25.42
2023-03-04T15:35:56.382Z,25.60
2023-03-04T15:38:26.305Z,24.80
2023-03-04T15:40:55.291Z,26.25
2023-03-04T15:43:23.690Z,28.10
2023-03-04T15:45:52.732Z,26.85
2023-03-04T15:48:21.307Z,26.35
2023-03-04T15:50:56.106Z,26.10
2023-03-04T15:53:37.899Z,27.10
2023-03-04T15:56:12.060Z,28.35
2023-03-04T15:58:40.418Z,26.10
2023-03-04T16:01:15.113Z,22.92
2023-03-04T16:03:43.375Z,28.20
2023-03-04T16:06:14.681Z,28.70
2023-03-04T16:08:43.130Z,28.60
2023-03-04T16:11:17.226Z,25.95
2023-03-04T16:13:45.186Z,27.67
2023-03-04T16:16:13.775Z,33.95
2023-03-04T16:18:42.491Z,27.02
2023-03-04T16:21:14.362Z,25.48
2023-03-04T16:23:45.583Z,30.38
2023-03-04T16:26:17.382Z,27.50
2023-03-04T16:28:45.249Z,25.27
2023-03-04T16:31:14.823Z,30.05
2023-03-04T16:33:43.097Z,27.52
2023-03-04T16:36:31.315Z,28.55
2023-03-04T16:39:03.652Z,30.10
2023-03-04T16:41:31.509Z,30.98
2023-03-04T16:44:00.990Z,26.90
2023-03-04T16:46:30.349Z,29.60
2023-03-04T16:48:58.273Z,31.45
2023-03-04T16:51:26.184Z,34.03
2023-03-04T16:53:57.209Z,28.98
2023-03-04T16:56:25.089Z,30.23
2023-03-04T16:58:56.283Z,34.60
2023-03-04T17:01:28.249Z,55.85
2023-03-04T17:03:56.578Z,40.60
2023-03-04T17:06:25.242Z,63.28
2023-03-04T17:08:53.100Z,52.70
2023-03-04T17:11:23.623Z,34.40
2023-03-04T17:13:52.290Z,36.20
2023-03-04T17:16:20.287Z,32.75
2023-03-04T17:18:48.178Z,37.55
2023-03-04T17:21:19.354Z,33.72
2023-03-04T17:23:47.256Z,36.85
2023-03-04T17:26:16.157Z,33.42
2023-03-04T17:28:44.125Z,37.58
2023-03-04T17:31:13.592Z,39.47
2023-03-04T17:33:41.968Z,38.78
2023-03-04T17:36:14.754Z,36.75
2023-03-04T17:38:43.373Z,36.10
2023-03-04T17:41:16.230Z,51.97
2023-03-04T17:43:45.761Z,43.92
2023-03-04T17:46:15.358Z,105.50
2023-03-04T17:48:44.047Z,48.25
2023-03-04T17:51:12.244Z,48.45
2023-03-04T17:53:40.293Z,53.30
2023-03-04T17:56:11.435Z,41.10
2023-03-04T17:58:40.456Z,64.78
2023-03-04T18:01:20.487Z,44.65
2023-03-04T18:03:48.721Z,43.45
2023-03-04T18:06:17.361Z,54.55
2023-03-04T18:08:45.825Z,36.53
2023-03-04T18:11:13.741Z,52.40
2023-03-04T18:13:43.244Z,76.55
2023-03-04T18:16:15.128Z,53.42
2023-03-04T18:18:43.658Z,41.88
2023-03-04T18:21:13.955Z,42.80
2023-03-04T18:23:41.877Z,45.22
2023-03-04T18:26:09.971Z,39.65
2023-03-04T18:28:38.170Z,41.10
2023-03-04T18:31:06.456Z,43.58
2023-03-04T18:33:34.606Z,39.38
2023-03-04T18:36:08.077Z,39.55
2023-03-04T18:38:35.908Z,40.75
2023-03-04T18:41:07.012Z,38.55
2023-03-04T18:43:35.353Z,42.75
2023-03-04T18:46:29.051Z,43.85
2023-03-04T18:51:27.175Z,41.63
2023-03-04T18:53:55.290Z,46.10
2023-03-04T18:56:46.461Z,41.65
2023-03-04T18:59:17.380Z,48.65
2023-03-04T19:01:46.056Z,42.67
2023-03-04T19:04:16.304Z,54.60
2023-03-04T19:06:44.223Z,52.92
2023-03-04T19:09:12.194Z,52.13
2023-03-04T19:11:40.075Z,55.42
2023-03-04T19:14:08.134Z,56.42
2023-03-04T19:16:36.387Z,62.28
2023-03-04T19:19:04.768Z,58.83
2023-03-04T19:21:38.389Z,52.22
2023-03-04T19:24:06.746Z,59.88
2023-03-04T19:26:35.264Z,46.75
2023-03-04T19:29:03.851Z,51.00
2023-03-04T19:31:31.693Z,47.08
2023-03-04T19:33:59.773Z,56.85
2023-03-04T19:36:27.691Z,49.30
2023-03-04T19:38:55.934Z,48.25
2023-03-04T19:41:23.951Z,48.20
2023-03-04T19:43:51.825Z,49.53
2023-03-04T19:46:19.639Z,49.33
2023-03-04T19:48:50.500Z,47.92
2023-03-04T19:51:24.209Z,49.13
2023-03-04T19:53:53.338Z,56.85
2023-03-04T19:56:22.962Z,52.47
2023-03-04T19:58:54.306Z,48.95
2023-03-04T20:01:28.917Z,46.72
2023-03-04T20:04:11.200Z,53.78
2023-03-04T20:06:42.450Z,51.90
2023-03-04T20:09:11.161Z,54.92
2023-03-04T20:11:47.390Z,56.05
2023-03-04T20:14:24.651Z,55.17
2023-03-04T20:16:52.577Z,52.30
2023-03-04T20:19:20.429Z,52.50
2023-03-04T20:21:52.366Z,58.58
2023-03-04T20:24:23.880Z,55.03
2023-03-04T20:26:52.389Z,51.70
2023-03-04T20:29:20.244Z,55.30
2023-03-04T20:31:48.690Z,62.22
2023-03-04T20:34:16.669Z,61.00
2023-03-04T20:36:44.861Z,61.63
2023-03-04T20:39:27.974Z,63.17
2023-03-04T20:41:58.445Z,60.08
2023-03-04T20:44:26.532Z,54.72
2023-03-04T20:46:54.370Z,54.50
2023-03-04T20:49:24.810Z,56.33
2023-03-04T20:52:00.791Z,57.80
2023-03-04T20:54:38.883Z,68.88
2023-03-04T20:57:08.175Z,64.35
2023-03-04T20:59:38.135Z,60.20
2023-03-04T21:02:07.978Z,59.25
2023-03-04T21:04:35.979Z,55.53
2023-03-04T21:07:04.425Z,62.05
2023-03-04T21:09:32.349Z,56.88
2023-03-04T21:12:01.113Z,61.13
2023-03-04T21:14:31.180Z,53.45
2023-03-04T21:17:01.955Z,58.42
2023-03-04T21:19:43.538Z,60.15
2023-03-04T21:22:18.341Z,65.93
2023-03-04T21:24:47.002Z,57.50
2023-03-04T21:27:17.104Z,59.28
2023-03-04T21:29:45.116Z,58.40
2023-03-04T21:32:33.232Z,67.25
2023-03-04T21:35:01.154Z,62.17
2023-03-04T21:37:29.055Z,58.33
2023-03-04T21:39:58.537Z,59.90
2023-03-04T21:42:26.431Z,60.78
2023-03-04T21:44:54.271Z,62.47
2023-03-04T21:47:22.776Z,61.65
2023-03-04T21:49:50.826Z,61.17
2023-03-04T21:52:21.589Z,54.97
2023-03-04T21:54:49.870Z,60.17
2023-03-04T21:57:18.568Z,63.33
2023-03-04T21:59:46.400Z,64.78
2023-03-04T22:02:17.385Z,61.28
2023-03-04T22:04:45.752Z,71.28
2023-03-04T22:07:14.410Z,68.10
2023-03-04T22:09:42.216Z,63.00
2023-03-04T22:12:10.309Z,68.22
2023-03-04T22:14:38.316Z,66.93
2023-03-04T22:17:06.337Z,68.40
2023-03-04T22:19:34.209Z,63.63
2023-03-04T22:22:02.154Z,63.20
2023-03-04T22:24:30.300Z,74.97
2023-03-04T22:27:00.080Z,74.63
2023-03-04T22:29:27.934Z,72.15
2023-03-04T22:31:55.867Z,63.92
2023-03-04T22:34:23.857Z,65.63
2023-03-04T22:36:51.721Z,62.42
2023-03-04T22:39:19.688Z,64.70
2023-03-04T22:41:47.910Z,66.03
2023-03-04T22:44:15.858Z,64.95
2023-03-04T22:46:44.045Z,65.10
2023-03-04T22:49:14.095Z,70.32
2023-03-04T22:51:43.517Z,67.78
2023-03-04T22:54:17.352Z,59.40
2023-03-04T22:56:45.504Z,61.55
2023-03-04T22:59:14.073Z,62.25
2023-03-04T23:01:42.034Z,61.70
2023-03-04T23:04:09.940Z,61.60
2023-03-04T23:06:37.896Z,59.63
2023-03-04T23:09:06.005Z,62.72
2023-03-04T23:11:35.711Z,64.47
2023-03-04T23:14:07.145Z,64.97
2023-03-04T23:16:38.785Z,61.78
2023-03-04T23:19:08.165Z,70.75
2023-03-04T23:21:37.417Z,67.82
2023-03-04T23:24:07.543Z,58.30
2023-03-04T23:26:41.911Z,59.95
2023-03-04T23:29:13.812Z,70.20
2023-03-04T23:31:42.774Z,64.35
2023-03-04T23:34:11.436Z,60.53
2023-03-04T23:36:39.315Z,66.78
2023-03-04T23:39:08.008Z,64.68
2023-03-04T23:41:36.121Z,61.47
2023-03-04T23:44:04.853Z,63.05
2023-03-04T23:46:33.038Z,64.13
2023-03-04T23:49:00.852Z,64.85
2023-03-04T23:51:30.055Z,62.42
2023-03-04T23:53:58.945Z,63.83
2023-03-04T23:56:29.581Z,62.13
2023-03-04T23:58:59.146Z,65.60
